Time;durP1;ratioP1;P1;durP2;ratioP2;P2;SDS_P1;SDS_P2;PMS_P1;PMS_P2;Temp;Humidity;BMP_temperature;BMP_pressure;BME280_temperature;BME280_humidity;BME280_pressure;Samples;Min_cycle;Max_cycle;Signal;HPM_P1;HPM_P2
2022/09/14 00:00:38;;;;;;;4.18;0.85;;;;;;;;;;2068255;28;20038;-63
2022/09/14 00:01:58;;;;;;;2.47;0.77;;;;;;;;;;2076955;28;20497;-64
2022/09/14 00:03:17;;;;;;;2.55;0.80;;;;;;;;;;2074893;28;20112;-64
2022/09/14 00:04:36;;;;;;;4.40;1.10;;;;;;;;;;2076199;28;20681;-63
2022/09/14 00:05:55;;;;;;;1.75;0.90;;;;;;;;;;2073445;28;20633;-63
2022/09/14 00:07:14;;;;;;;4.07;1.08;;;;;;;;;;2070637;28;20033;-64
2022/09/14 00:08:33;;;;;;;2.03;0.80;;;;;;;;;;2074263;28;20021;-66
2022/09/14 00:09:52;;;;;;;2.15;0.80;;;;;;;;;;2073394;28;20034;-64
2022/09/14 00:11:13;;;;;;;3.47;1.08;;;;;;;;;;2073983;28;20385;-64
2022/09/14 00:12:32;;;;;;;1.55;1.00;;;;;;;;;;2071077;28;20030;-65
2022/09/14 00:13:51;;;;;;;1.10;0.88;;;;;;;;;;2067420;28;20049;-65
2022/09/14 00:15:10;;;;;;;1.95;0.80;;;;;;;;;;2070602;28;20425;-65
2022/09/14 00:16:31;;;;;;;3.85;0.90;;;;;;;;;;2074408;28;20034;-65
2022/09/14 00:17:50;;;;;;;1.73;1.25;;;;;;;;;;2066544;28;20045;-64
2022/09/14 00:19:16;;;;;;;2.03;1.05;;;;;;;;;;2069585;28;20129;-64
2022/09/14 00:20:35;;;;;;;5.43;0.80;;;;;;;;;;2073931;28;20030;-65
2022/09/14 00:21:56;;;;;;;3.10;0.80;;;;;;;;;;2073147;28;20034;-64
2022/09/14 00:23:15;;;;;;;2.80;0.80;;;;;;;;;;2072480;28;20034;-64
2022/09/14 00:24:34;;;;;;;4.20;0.95;;;;;;;;;;2073244;28;20116;-64
2022/09/14 00:25:53;;;;;;;2.25;0.70;;;;;;;;;;2073077;28;20113;-65
2022/09/14 00:27:12;;;;;;;2.45;0.80;;;;;;;;;;2074373;28;20022;-65
2022/09/14 00:28:55;;;;;;;1.13;0.85;;;;;;;;;;2073173;28;20030;-64
2022/09/14 00:30:14;;;;;;;6.13;1.98;;;;;;;;;;2072752;28;20490;-65
2022/09/14 00:31:34;;;;;;;2.88;0.90;;;;;;;;;;2073449;28;20045;-64
2022/09/14 00:32:53;;;;;;;1.60;0.50;;;;;;;;;;2071822;28;20033;-64
2022/09/14 00:34:14;;;;;;;3.28;0.77;;;;;;;;;;2071991;28;20029;-65
2022/09/14 00:35:34;;;;;;;2.97;0.93;;;;;;;;;;2074397;28;20438;-64
2022/09/14 00:36:53;;;;;;;1.65;0.73;;;;;;;;;;2073815;28;20467;-64
2022/09/14 00:38:12;;;;;;;2.33;0.93;;;;;;;;;;2073522;28;20022;-64
2022/09/14 00:39:30;;;;;;;1.80;0.88;;;;;;;;;;2072061;28;20030;-65
2022/09/14 00:40:57;;;;;;;3.17;1.10;;;;;;;;;;2071824;28;20113;-64
2022/09/14 00:42:18;;;;;;;1.25;0.50;;;;;;;;;;2070934;28;20030;-65
2022/09/14 00:44:09;;;;;;;2.95;0.90;;;;;;;;;;2072414;28;20109;-64
2022/09/14 00:45:28;;;;;;;3.25;1.02;;;;;;;;;;2045520;28;20039;-64
2022/09/14 00:46:49;;;;;;;1.92;0.80;;;;;;;;;;2071989;28;20046;-64
2022/09/14 00:48:08;;;;;;;1.42;0.73;;;;;;;;;;2073411;28;20037;-64
2022/09/14 00:49:34;;;;;;;1.98;0.70;;;;;;;;;;2073779;28;20033;-64
2022/09/14 00:50:54;;;;;;;3.33;1.08;;;;;;;;;;2073709;28;20038;-64
2022/09/14 00:52:32;;;;;;;3.05;1.00;;;;;;;;;;2072651;28;20021;-64
2022/09/14 00:53:51;;;;;;;4.43;1.08;;;;;;;;;;2068410;28;20038;-63
2022/09/14 00:55:12;;;;;;;5.43;1.30;;;;;;;;;;2061490;28;20038;-64
2022/09/14 00:56:31;;;;;;;3.13;0.90;;;;;;;;;;2066479;28;20042;-64
2022/09/14 00:57:52;;;;;;;2.20;0.70;;;;;;;;;;2075344;28;20398;-65
2022/09/14 00:59:16;;;;;;;2.40;0.95;;;;;;;;;;2075078;28;20569;-65
2022/09/14 01:00:35;;;;;;;2.28;1.35;;;;;;;;;;2075272;28;20033;-65
2022/09/14 01:01:54;;;;;;;2.67;1.27;;;;;;;;;;2071708;28;20022;-64
2022/09/14 01:03:13;;;;;;;6.50;0.90;;;;;;;;;;2062473;28;20034;-64
2022/09/14 01:04:32;;;;;;;2.42;0.90;;;;;;;;;;2072434;28;20033;-65
2022/09/14 01:06:00;;;;;;;2.55;1.20;;;;;;;;;;2079513;28;20030;-64
2022/09/14 01:07:19;;;;;;;3.88;1.00;;;;;;;;;;2067221;28;20479;-64
2022/09/14 01:08:52;;;;;;;2.38;0.88;;;;;;;;;;2074075;28;20478;-64
2022/09/14 01:10:11;;;;;;;3.95;1.67;;;;;;;;;;2077574;28;20041;-64
2022/09/14 01:11:46;;;;;;;4.88;1.38;;;;;;;;;;2075353;28;20022;-63
2022/09/14 01:13:14;;;;;;;3.40;1.63;;;;;;;;;;2074728;28;20076;-64
2022/09/14 01:14:37;;;;;;;4.00;1.50;;;;;;;;;;2078530;28;20502;-65
2022/09/14 01:16:09;;;;;;;5.43;1.23;;;;;;;;;;2075818;28;20084;-64
2022/09/14 01:17:37;;;;;;;1.42;1.33;;;;;;;;;;2076929;28;20022;-64
2022/09/14 01:18:57;;;;;;;2.05;1.30;;;;;;;;;;2078091;28;20034;-65
2022/09/14 01:20:16;;;;;;;2.47;1.30;;;;;;;;;;2075922;28;20049;-64
2022/09/14 01:21:37;;;;;;;3.20;1.42;;;;;;;;;;2075695;28;20108;-65
2022/09/14 01:23:04;;;;;;;7.03;1.48;;;;;;;;;;2067159;28;20022;-65
2022/09/14 01:24:39;;;;;;;2.70;1.13;;;;;;;;;;2074065;28;20432;-66
2022/09/14 01:26:01;;;;;;;2.00;1.08;;;;;;;;;;2076020;28;20397;-66
2022/09/14 01:27:32;;;;;;;3.80;1.00;;;;;;;;;;2077717;28;20029;-65
2022/09/14 01:28:59;;;;;;;2.88;0.90;;;;;;;;;;2077272;28;20026;-65
2022/09/14 01:30:21;;;;;;;3.90;1.20;;;;;;;;;;2072161;28;20112;-65
2022/09/14 01:31:53;;;;;;;2.70;0.93;;;;;;;;;;2075248;28;20127;-64
2022/09/14 01:33:18;;;;;;;5.05;0.93;;;;;;;;;;2073764;28;20041;-65
2022/09/14 01:34:43;;;;;;;3.45;0.90;;;;;;;;;;2077270;28;20120;-64
2022/09/14 01:36:03;;;;;;;2.42;1.05;;;;;;;;;;2078668;28;20112;-65
2022/09/14 01:37:28;;;;;;;4.68;0.93;;;;;;;;;;2069572;28;20030;-65
2022/09/14 01:38:48;;;;;;;1.55;0.65;;;;;;;;;;2070268;28;20495;-65
2022/09/14 01:40:21;;;;;;;3.55;1.17;;;;;;;;;;2065061;28;20034;-65
2022/09/14 01:41:41;;;;;;;3.38;0.95;;;;;;;;;;2075203;28;20033;-65
2022/09/14 01:43:02;;;;;;;2.28;1.10;;;;;;;;;;2073006;28;20462;-65
2022/09/14 01:44:28;;;;;;;3.72;1.60;;;;;;;;;;2078481;28;20025;-65
2022/09/14 01:45:52;;;;;;;5.88;1.40;;;;;;;;;;2071368;28;20049;-65
2022/09/14 01:47:16;;;;;;;3.00;1.25;;;;;;;;;;2075150;28;20482;-64
2022/09/14 01:48:48;;;;;;;4.88;1.20;;;;;;;;;;2077684;28;20065;-64
2022/09/14 01:50:14;;;;;;;2.83;1.20;;;;;;;;;;2078406;28;20037;-64
2022/09/14 01:51:36;;;;;;;2.03;1.10;;;;;;;;;;2077919;28;20486;-64
2022/09/14 01:52:58;;;;;;;7.50;1.05;;;;;;;;;;2064392;28;20200;-64
2022/09/14 01:54:22;;;;;;;1.15;0.82;;;;;;;;;;2076663;28;20025;-65
2022/09/14 01:55:47;;;;;;;4.30;1.00;;;;;;;;;;2071825;28;20053;-64
2022/09/14 01:57:08;;;;;;;2.88;1.20;;;;;;;;;;2075852;28;20030;-65
2022/09/14 01:58:34;;;;;;;4.43;0.90;;;;;;;;;;2078337;28;20029;-64
2022/09/14 01:59:56;;;;;;;2.33;0.90;;;;;;;;;;2076071;28;20033;-64
2022/09/14 02:01:20;;;;;;;2.90;1.23;;;;;;;;;;2076316;28;20234;-64
2022/09/14 02:02:42;;;;;;;3.35;1.33;;;;;;;;;;2078618;28;20021;-64
2022/09/14 02:04:02;;;;;;;2.30;0.93;;;;;;;;;;2078025;28;20038;-64
2022/09/14 02:05:48;;;;;;;9.43;1.42;;;;;;;;;;2077430;28;20017;-65
2022/09/14 02:07:07;;;;;;;2.17;1.10;;;;;;;;;;2079781;28;20116;-64
2022/09/14 02:08:27;;;;;;;5.10;1.30;;;;;;;;;;2077888;28;20080;-65
2022/09/14 02:09:47;;;;;;;5.13;1.13;;;;;;;;;;2075163;28;20034;-65
2022/09/14 02:11:06;;;;;;;3.17;1.10;;;;;;;;;;2075924;28;20033;-64
2022/09/14 02:12:25;;;;;;;4.30;1.00;;;;;;;;;;2077259;28;20389;-65
2022/09/14 02:13:44;;;;;;;3.70;1.17;;;;;;;;;;2080250;28;20102;-65
2022/09/14 02:15:03;;;;;;;2.58;1.10;;;;;;;;;;2075941;28;20029;-64
2022/09/14 02:16:23;;;;;;;3.28;1.17;;;;;;;;;;2073014;28;20030;-65
2022/09/14 02:17:42;;;;;;;1.95;1.05;;;;;;;;;;2075622;28;20033;-63
2022/09/14 02:19:01;;;;;;;4.13;1.30;;;;;;;;;;2080153;28;20037;-64
2022/09/14 02:20:26;;;;;;;2.17;1.30;;;;;;;;;;2076524;28;20557;-64
2022/09/14 02:21:45;;;;;;;1.73;1.10;;;;;;;;;;2073285;28;20029;-64
2022/09/14 02:23:05;;;;;;;4.57;1.70;;;;;;;;;;2068777;28;20038;-63
2022/09/14 02:24:24;;;;;;;2.22;1.02;;;;;;;;;;2075401;28;20026;-64
2022/09/14 02:25:44;;;;;;;3.03;1.23;;;;;;;;;;2077928;28;20136;-64
2022/09/14 02:27:03;;;;;;;3.72;1.10;;;;;;;;;;2077421;28;20029;-64
2022/09/14 02:28:22;;;;;;;4.22;1.30;;;;;;;;;;2075295;28;20030;-64
2022/09/14 02:29:41;;;;;;;3.10;1.23;;;;;;;;;;2076389;28;20037;-64
2022/09/14 02:31:00;;;;;;;4.15;1.00;;;;;;;;;;2074526;28;20030;-64
2022/09/14 02:32:39;;;;;;;2.55;1.20;;;;;;;;;;2077485;28;20116;-64
2022/09/14 02:34:17;;;;;;;7.18;1.55;;;;;;;;;;2078642;28;20030;-64
2022/09/14 02:35:39;;;;;;;3.30;1.42;;;;;;;;;;2076656;28;20033;-64
2022/09/14 02:36:58;;;;;;;3.40;1.30;;;;;;;;;;2075467;28;20430;-64
2022/09/14 02:38:26;;;;;;;1.83;1.15;;;;;;;;;;2075860;28;20715;-64
2022/09/14 02:40:04;;;;;;;4.40;1.30;;;;;;;;;;2072178;28;20070;-65
2022/09/14 02:41:28;;;;;;;1.45;0.95;;;;;;;;;;2075422;28;20029;-64
2022/09/14 02:43:06;;;;;;;8.35;1.67;;;;;;;;;;2079660;28;20038;-64
2022/09/14 02:44:40;;;;;;;1.35;0.85;;;;;;;;;;2077633;28;20018;-64
2022/09/14 02:45:59;;;;;;;;;;;;;;;;;;2078865;28;20030;-63
2022/09/14 02:47:26;;;;;;;4.43;1.10;;;;;;;;;;2072541;28;19992;-65
2022/09/14 02:48:52;;;;;;;3.85;1.20;;;;;;;;;;2073644;28;20022;-64
2022/09/14 02:50:25;;;;;;;3.92;1.30;;;;;;;;;;2078088;28;20116;-65
2022/09/14 02:51:58;;;;;;;4.82;1.10;;;;;;;;;;2077423;28;20025;-64
2022/09/14 02:53:20;;;;;;;2.47;1.00;;;;;;;;;;2076361;28;20026;-64
2022/09/14 02:54:53;;;;;;;5.97;1.30;;;;;;;;;;2078016;28;20112;-64
2022/09/14 02:56:12;;;;;;;2.58;1.20;;;;;;;;;;2076474;28;20633;-63
2022/09/14 02:57:31;;;;;;;2.70;1.35;;;;;;;;;;2071307;28;21955;-64
2022/09/14 02:58:50;;;;;;;2.30;1.20;;;;;;;;;;2075346;28;20037;-63
2022/09/14 03:00:09;;;;;;;2.03;0.80;;;;;;;;;;2076295;28;20034;-64
2022/09/14 03:01:28;;;;;;;4.95;1.40;;;;;;;;;;2078715;28;20490;-64
2022/09/14 03:02:47;;;;;;;2.78;0.80;;;;;;;;;;2077877;28;20034;-63
2022/09/14 03:04:06;;;;;;;3.15;1.00;;;;;;;;;;2077123;28;20025;-63
2022/09/14 03:05:25;;;;;;;6.03;1.00;;;;;;;;;;2077422;28;20064;-63
2022/09/14 03:06:44;;;;;;;1.33;0.80;;;;;;;;;;2078164;28;20029;-64
2022/09/14 03:08:04;;;;;;;2.55;0.95;;;;;;;;;;2078409;28;20136;-64
2022/09/14 03:09:23;;;;;;;2.88;0.88;;;;;;;;;;2076504;28;20034;-64
2022/09/14 03:10:42;;;;;;;3.58;0.90;;;;;;;;;;2075919;28;20069;-64
2022/09/14 03:12:02;;;;;;;2.90;0.93;;;;;;;;;;2077410;28;20033;-64
2022/09/14 03:13:21;;;;;;;2.15;0.80;;;;;;;;;;2079159;28;20482;-65
2022/09/14 03:14:40;;;;;;;1.60;0.70;;;;;;;;;;2077091;28;20041;-64
2022/09/14 03:16:03;;;;;;;1.88;0.75;;;;;;;;;;2072266;28;20037;-64
2022/09/14 03:17:22;;;;;;;1.63;0.70;;;;;;;;;;2072016;28;20168;-64
2022/09/14 03:18:41;;;;;;;1.33;0.70;;;;;;;;;;2078817;28;20029;-65
2022/09/14 03:20:00;;;;;;;1.33;0.95;;;;;;;;;;2075090;28;20022;-64
2022/09/14 03:21:19;;;;;;;1.20;0.40;;;;;;;;;;2075904;28;20033;-64
2022/09/14 03:22:38;;;;;;;1.20;0.50;;;;;;;;;;2075823;28;20116;-64
2022/09/14 03:23:57;;;;;;;2.88;0.70;;;;;;;;;;2076504;28;20056;-65
2022/09/14 03:25:18;;;;;;;0.65;0.40;;;;;;;;;;2073570;28;20029;-64
2022/09/14 03:26:38;;;;;;;0.38;0.38;;;;;;;;;;2077992;28;20895;-64
2022/09/14 03:27:58;;;;;;;0.40;0.40;;;;;;;;;;2076099;28;20061;-64
2022/09/14 03:29:17;;;;;;;0.43;0.22;;;;;;;;;;2076634;28;20034;-64
2022/09/14 03:30:36;;;;;;;1.73;0.40;;;;;;;;;;2071360;28;20030;-64
2022/09/14 03:31:55;;;;;;;0.85;0.30;;;;;;;;;;2077777;28;20125;-65
2022/09/14 03:33:14;;;;;;;0.20;0.20;;;;;;;;;;2075555;28;20033;-64
2022/09/14 03:34:33;;;;;;;1.38;0.32;;;;;;;;;;2075949;28;20018;-65
2022/09/14 03:35:51;;;;;;;1.13;0.55;;;;;;;;;;2076297;28;20112;-64
2022/09/14 03:37:11;;;;;;;0.32;0.20;;;;;;;;;;2075720;28;20057;-64
2022/09/14 03:38:30;;;;;;;0.63;0.40;;;;;;;;;;2076940;28;20037;-64
2022/09/14 03:39:49;;;;;;;0.35;0.20;;;;;;;;;;2075980;28;20395;-65
2022/09/14 03:41:08;;;;;;;0.88;0.43;;;;;;;;;;2076985;28;20041;-64
2022/09/14 03:42:27;;;;;;;1.63;0.60;;;;;;;;;;2075285;28;20978;-64
2022/09/14 03:43:46;;;;;;;0.55;0.30;;;;;;;;;;2078766;28;20049;-65
2022/09/14 03:45:05;;;;;;;1.55;0.45;;;;;;;;;;2074368;28;20018;-64
2022/09/14 03:46:25;;;;;;;1.48;0.45;;;;;;;;;;2078330;28;20390;-64
2022/09/14 03:47:45;;;;;;;3.63;0.50;;;;;;;;;;2073801;28;20033;-64
2022/09/14 03:49:04;;;;;;;1.52;0.47;;;;;;;;;;2076408;28;20026;-66
2022/09/14 03:50:23;;;;;;;3.05;0.40;;;;;;;;;;2078236;28;20030;-64
2022/09/14 03:51:42;;;;;;;1.02;0.50;;;;;;;;;;2073793;28;20120;-64
2022/09/14 03:53:03;;;;;;;1.70;0.57;;;;;;;;;;2074192;28;20108;-64
2022/09/14 03:54:22;;;;;;;2.05;0.50;;;;;;;;;;2076126;28;20025;-64
2022/09/14 03:55:41;;;;;;;1.73;0.70;;;;;;;;;;2073252;28;20069;-65
2022/09/14 03:57:00;;;;;;;1.02;0.50;;;;;;;;;;2076993;28;20030;-64
2022/09/14 03:58:19;;;;;;;1.45;0.50;;;;;;;;;;2076247;28;20117;-64
2022/09/14 03:59:38;;;;;;;1.98;0.60;;;;;;;;;;2075666;28;20490;-64
2022/09/14 04:01:02;;;;;;;1.88;0.65;;;;;;;;;;2075462;28;20481;-65
2022/09/14 04:02:21;;;;;;;0.68;0.68;;;;;;;;;;2075742;28;20057;-64
2022/09/14 04:03:39;;;;;;;1.85;0.40;;;;;;;;;;2070954;28;20451;-65
2022/09/14 04:04:58;;;;;;;0.63;0.30;;;;;;;;;;2070815;28;20026;-64
2022/09/14 04:06:18;;;;;;;0.73;0.57;;;;;;;;;;2073145;28;20022;-64
2022/09/14 04:07:37;;;;;;;1.60;0.40;;;;;;;;;;2073798;28;20025;-64
2022/09/14 04:08:56;;;;;;;2.13;0.70;;;;;;;;;;2078803;28;20034;-64
2022/09/14 04:10:15;;;;;;;0.63;0.45;;;;;;;;;;2076677;28;20116;-64
2022/09/14 04:11:34;;;;;;;0.55;0.50;;;;;;;;;;2077548;28;20437;-64
2022/09/14 04:12:53;;;;;;;1.95;0.70;;;;;;;;;;2076547;28;20470;-64
2022/09/14 04:14:12;;;;;;;0.40;0.40;;;;;;;;;;2075876;28;20041;-64
2022/09/14 04:15:31;;;;;;;0.60;0.60;;;;;;;;;;2071984;28;20022;-65
2022/09/14 04:16:50;;;;;;;0.85;0.35;;;;;;;;;;2076997;28;20025;-65
2022/09/14 04:18:09;;;;;;;1.63;0.57;;;;;;;;;;2073237;28;20034;-65
2022/09/14 04:19:28;;;;;;;1.33;0.57;;;;;;;;;;2073276;28;20042;-64
2022/09/14 04:20:52;;;;;;;3.80;0.68;;;;;;;;;;2073911;28;20105;-65
2022/09/14 04:22:11;;;;;;;1.42;0.63;;;;;;;;;;2071594;28;20041;-66
2022/09/14 04:23:30;;;;;;;1.13;0.60;;;;;;;;;;2070804;28;20033;-64
2022/09/14 04:24:49;;;;;;;0.60;0.50;;;;;;;;;;2072987;28;20464;-64
2022/09/14 04:26:16;;;;;;;1.08;0.50;;;;;;;;;;2072874;28;20026;-65
2022/09/14 04:27:35;;;;;;;1.00;0.70;;;;;;;;;;2075608;28;20110;-65
2022/09/14 04:28:54;;;;;;;0.75;0.50;;;;;;;;;;2077255;28;20483;-64
2022/09/14 04:30:13;;;;;;;0.70;0.70;;;;;;;;;;2072821;28;20112;-65
2022/09/14 04:31:32;;;;;;;1.90;0.50;;;;;;;;;;2076109;28;20494;-65
2022/09/14 04:32:52;;;;;;;0.68;0.60;;;;;;;;;;2078073;28;20037;-64
2022/09/14 04:34:12;;;;;;;2.25;0.90;;;;;;;;;;2077712;28;20068;-64
2022/09/14 04:35:31;;;;;;;2.05;0.70;;;;;;;;;;2074940;28;20033;-64
2022/09/14 04:36:51;;;;;;;0.90;0.70;;;;;;;;;;2075714;28;20165;-65
2022/09/14 04:38:09;;;;;;;1.33;0.77;;;;;;;;;;2073705;28;20038;-65
2022/09/14 04:39:29;;;;;;;1.08;0.75;;;;;;;;;;2073910;28;20033;-64
2022/09/14 04:40:48;;;;;;;1.65;0.90;;;;;;;;;;2075566;28;20057;-64
2022/09/14 04:42:07;;;;;;;1.83;0.63;;;;;;;;;;2073627;28;20038;-64
2022/09/14 04:43:26;;;;;;;0.80;0.80;;;;;;;;;;2072663;28;20053;-65
2022/09/14 04:44:45;;;;;;;1.20;0.90;;;;;;;;;;2074408;28;20058;-65
2022/09/14 04:46:05;;;;;;;1.80;1.13;;;;;;;;;;2072235;28;20569;-64
2022/09/14 04:47:24;;;;;;;1.30;0.90;;;;;;;;;;2076970;28;20041;-65
2022/09/14 04:48:43;;;;;;;1.80;0.98;;;;;;;;;;2077529;28;20034;-64
2022/09/14 04:50:02;;;;;;;2.30;1.20;;;;;;;;;;2079612;28;20038;-66
2022/09/14 04:51:26;;;;;;;1.13;0.80;;;;;;;;;;2077826;28;20034;-64
2022/09/14 04:52:45;;;;;;;3.05;0.90;;;;;;;;;;2074401;28;20039;-65
2022/09/14 04:54:05;;;;;;;0.70;0.70;;;;;;;;;;2076927;28;20041;-65
2022/09/14 04:55:26;;;;;;;1.10;0.60;;;;;;;;;;2070735;28;20057;-65
2022/09/14 04:56:45;;;;;;;1.50;0.80;;;;;;;;;;2075834;28;20037;-65
2022/09/14 04:58:05;;;;;;;1.73;0.90;;;;;;;;;;2074761;28;20050;-64
2022/09/14 04:59:24;;;;;;;0.75;0.60;;;;;;;;;;2077237;28;20061;-65
2022/09/14 05:00:44;;;;;;;1.08;0.82;;;;;;;;;;2077448;28;20030;-65
2022/09/14 05:02:03;;;;;;;0.98;0.88;;;;;;;;;;2077311;28;20025;-65
2022/09/14 05:03:22;;;;;;;0.85;0.80;;;;;;;;;;2077531;28;20108;-64
2022/09/14 05:04:41;;;;;;;1.30;0.60;;;;;;;;;;2077579;28;20034;-65
2022/09/14 05:06:01;;;;;;;1.05;0.80;;;;;;;;;;2080675;28;20021;-65
2022/09/14 05:07:20;;;;;;;1.25;0.93;;;;;;;;;;2075013;28;20026;-64
2022/09/14 05:08:39;;;;;;;2.05;1.13;;;;;;;;;;2075652;28;20030;-64
2022/09/14 05:09:58;;;;;;;1.70;1.10;;;;;;;;;;2074980;28;20030;-64
2022/09/14 05:11:18;;;;;;;1.40;0.80;;;;;;;;;;2079123;28;20033;-64
2022/09/14 05:12:37;;;;;;;1.95;1.02;;;;;;;;;;2074845;28;20501;-64
2022/09/14 05:13:57;;;;;;;0.50;0.50;;;;;;;;;;2077660;28;20465;-64
2022/09/14 05:15:16;;;;;;;3.50;1.10;;;;;;;;;;2074558;28;20494;-65
2022/09/14 05:16:36;;;;;;;3.25;1.05;;;;;;;;;;2076074;28;20120;-64
2022/09/14 05:17:54;;;;;;;1.95;0.98;;;;;;;;;;2074701;28;20109;-65
2022/09/14 05:19:16;;;;;;;0.77;0.68;;;;;;;;;;2076907;28;20113;-64
2022/09/14 05:20:36;;;;;;;2.45;0.90;;;;;;;;;;2075938;28;20215;-64
2022/09/14 05:21:54;;;;;;;0.82;0.52;;;;;;;;;;2073308;28;20026;-65
2022/09/14 05:23:13;;;;;;;1.15;0.93;;;;;;;;;;2066307;28;20025;-64
2022/09/14 05:24:32;;;;;;;1.27;1.00;;;;;;;;;;2071974;28;20029;-64
2022/09/14 05:25:52;;;;;;;1.20;1.00;;;;;;;;;;2075267;28;20033;-64
2022/09/14 05:27:10;;;;;;;1.25;0.88;;;;;;;;;;2076670;28;20026;-66
2022/09/14 05:28:30;;;;;;;2.53;1.00;;;;;;;;;;2078524;28;20478;-64
2022/09/14 05:29:49;;;;;;;2.15;0.90;;;;;;;;;;2077327;28;20030;-64
2022/09/14 05:31:09;;;;;;;2.28;0.73;;;;;;;;;;2073555;28;20490;-65
2022/09/14 05:32:28;;;;;;;0.98;0.80;;;;;;;;;;2074770;28;20554;-64
2022/09/14 05:33:47;;;;;;;0.90;0.80;;;;;;;;;;2067107;28;20499;-66
2022/09/14 05:35:06;;;;;;;1.05;0.73;;;;;;;;;;2071929;28;21681;-66
2022/09/14 05:36:25;;;;;;;3.97;0.90;;;;;;;;;;2072577;28;20038;-65
2022/09/14 05:37:44;;;;;;;1.30;0.98;;;;;;;;;;2073376;28;20037;-65
2022/09/14 05:39:04;;;;;;;1.90;0.70;;;;;;;;;;2075184;28;20039;-66
2022/09/14 05:40:23;;;;;;;1.02;0.90;;;;;;;;;;2075772;28;20034;-64
2022/09/14 05:41:42;;;;;;;2.67;0.70;;;;;;;;;;2073451;28;20112;-65
2022/09/14 05:43:01;;;;;;;0.75;0.75;;;;;;;;;;2074071;28;20018;-65
2022/09/14 05:44:20;;;;;;;2.30;0.90;;;;;;;;;;2076828;28;20473;-66
2022/09/14 05:45:39;;;;;;;0.70;0.70;;;;;;;;;;2070907;28;20053;-65
2022/09/14 05:46:58;;;;;;;1.88;0.85;;;;;;;;;;2070918;28;20026;-65
2022/09/14 05:48:17;;;;;;;1.92;0.85;;;;;;;;;;2074512;28;20074;-64
2022/09/14 05:49:36;;;;;;;1.30;0.77;;;;;;;;;;2069534;28;20041;-64
2022/09/14 05:50:58;;;;;;;2.45;1.10;;;;;;;;;;2075251;28;20034;-63
2022/09/14 05:52:17;;;;;;;1.02;0.70;;;;;;;;;;2074960;28;20534;-63
2022/09/14 05:53:36;;;;;;;0.60;0.60;;;;;;;;;;2076691;28;20034;-63
2022/09/14 05:54:55;;;;;;;0.90;0.80;;;;;;;;;;2073987;28;20038;-63
2022/09/14 05:56:14;;;;;;;2.10;1.10;;;;;;;;;;2079309;28;20025;-63
2022/09/14 05:57:33;;;;;;;1.08;0.85;;;;;;;;;;2078359;28;20042;-65
2022/09/14 05:58:53;;;;;;;1.50;1.00;;;;;;;;;;2077391;28;20180;-64
2022/09/14 06:00:13;;;;;;;3.80;0.90;;;;;;;;;;2076110;28;20037;-64
2022/09/14 06:01:31;;;;;;;1.80;0.85;;;;;;;;;;2079109;28;20053;-64
2022/09/14 06:02:51;;;;;;;0.77;0.70;;;;;;;;;;2075953;28;20490;-63
2022/09/14 06:04:10;;;;;;;2.72;1.10;;;;;;;;;;2079809;28;20034;-64
2022/09/14 06:05:30;;;;;;;2.15;1.02;;;;;;;;;;2078202;28;20029;-64
2022/09/14 06:06:48;;;;;;;2.58;1.08;;;;;;;;;;2080382;28;20037;-64
2022/09/14 06:08:07;;;;;;;1.67;1.00;;;;;;;;;;2077631;28;20038;-65
2022/09/14 06:09:26;;;;;;;1.42;1.02;;;;;;;;;;2076893;28;20030;-64
2022/09/14 06:10:45;;;;;;;2.78;1.10;;;;;;;;;;2076758;28;20030;-63
2022/09/14 06:12:04;;;;;;;1.67;0.95;;;;;;;;;;2079008;28;20021;-63
2022/09/14 06:13:23;;;;;;;1.40;1.10;;;;;;;;;;2080520;28;20074;-65
2022/09/14 06:14:42;;;;;;;0.82;0.82;;;;;;;;;;2075993;28;20794;-63
2022/09/14 06:16:02;;;;;;;3.28;1.00;;;;;;;;;;2075597;28;20034;-63
2022/09/14 06:17:21;;;;;;;3.47;0.90;;;;;;;;;;2073429;28;20394;-63
2022/09/14 06:18:41;;;;;;;0.90;0.80;;;;;;;;;;2077326;28;20065;-65
2022/09/14 06:20:00;;;;;;;2.15;1.00;;;;;;;;;;2069373;28;20038;-64
2022/09/14 06:21:19;;;;;;;1.95;0.75;;;;;;;;;;2067815;28;20058;-64
2022/09/14 06:22:39;;;;;;;1.02;0.93;;;;;;;;;;2077017;28;20049;-64
2022/09/14 06:23:58;;;;;;;1.02;0.70;;;;;;;;;;2078728;28;20183;-64
2022/09/14 06:25:17;;;;;;;0.95;0.60;;;;;;;;;;2077477;28;20042;-65
2022/09/14 06:26:36;;;;;;;0.65;0.50;;;;;;;;;;2079490;28;20104;-64
2022/09/14 06:27:55;;;;;;;0.80;0.52;;;;;;;;;;2079626;28;20057;-65
2022/09/14 06:29:14;;;;;;;2.03;0.60;;;;;;;;;;2080662;28;20038;-66
2022/09/14 06:30:33;;;;;;;0.82;0.70;;;;;;;;;;2078051;28;20014;-65
2022/09/14 06:31:52;;;;;;;1.25;0.60;;;;;;;;;;2078994;28;20069;-64
2022/09/14 06:33:11;;;;;;;1.50;0.70;;;;;;;;;;2078579;28;20026;-65
2022/09/14 06:34:30;;;;;;;0.80;0.52;;;;;;;;;;2081149;28;20119;-64
2022/09/14 06:35:57;;;;;;;1.20;0.60;;;;;;;;;;2078912;28;20060;-64
2022/09/14 06:37:15;;;;;;;1.27;0.70;;;;;;;;;;2079182;28;20025;-64
2022/09/14 06:38:34;;;;;;;2.75;0.70;;;;;;;;;;2079232;28;20029;-64
2022/09/14 06:39:53;;;;;;;1.23;0.50;;;;;;;;;;2077941;28;20041;-64
2022/09/14 06:41:13;;;;;;;0.70;0.50;;;;;;;;;;2079714;28;20495;-65
2022/09/14 06:42:32;;;;;;;0.90;0.57;;;;;;;;;;2078115;28;20029;-64
2022/09/14 06:43:54;;;;;;;0.85;0.50;;;;;;;;;;2079233;28;20026;-64
2022/09/14 06:45:13;;;;;;;1.75;0.82;;;;;;;;;;2077233;28;20128;-63
2022/09/14 06:46:33;;;;;;;0.95;0.70;;;;;;;;;;2079371;28;20029;-64
2022/09/14 06:47:52;;;;;;;3.40;0.82;;;;;;;;;;2080174;28;20022;-64
2022/09/14 06:49:13;;;;;;;3.03;0.70;;;;;;;;;;2078032;28;20034;-64
2022/09/14 06:50:31;;;;;;;0.63;0.60;;;;;;;;;;2077506;28;20042;-64
2022/09/14 06:51:53;;;;;;;0.82;0.60;;;;;;;;;;2079747;28;20040;-64
2022/09/14 06:53:12;;;;;;;0.93;0.60;;;;;;;;;;2080886;28;20057;-64
2022/09/14 06:54:31;;;;;;;2.42;0.60;;;;;;;;;;2078934;28;20033;-63
2022/09/14 06:55:50;;;;;;;1.00;0.50;;;;;;;;;;2076143;28;20382;-64
2022/09/14 06:57:09;;;;;;;0.93;0.70;;;;;;;;;;2078933;28;20065;-64
2022/09/14 06:58:28;;;;;;;0.70;0.65;;;;;;;;;;2075394;28;20030;-64
2022/09/14 06:59:47;;;;;;;0.50;0.50;;;;;;;;;;2077803;28;20029;-64
2022/09/14 07:01:07;;;;;;;1.05;0.50;;;;;;;;;;2079105;28;20506;-66
2022/09/14 07:02:26;;;;;;;0.45;0.45;;;;;;;;;;2076639;28;20034;-64
2022/09/14 07:03:50;;;;;;;0.75;0.50;;;;;;;;;;2079321;28;20022;-65
2022/09/14 07:05:09;;;;;;;0.88;0.45;;;;;;;;;;2078418;28;20038;-64
2022/09/14 07:06:32;;;;;;;2.67;0.70;;;;;;;;;;2079405;28;20029;-65
2022/09/14 07:07:51;;;;;;;1.50;0.60;;;;;;;;;;2080025;28;20037;-64
2022/09/14 07:09:11;;;;;;;1.08;0.60;;;;;;;;;;2078270;28;20034;-66
2022/09/14 07:10:31;;;;;;;0.98;0.40;;;;;;;;;;2073965;28;20022;-66
2022/09/14 07:11:50;;;;;;;0.98;0.65;;;;;;;;;;2078116;28;20033;-63
2022/09/14 07:13:08;;;;;;;0.68;0.60;;;;;;;;;;2079322;28;20045;-63
2022/09/14 07:14:27;;;;;;;0.55;0.40;;;;;;;;;;2079825;28;20029;-63
2022/09/14 07:15:50;;;;;;;0.70;0.50;;;;;;;;;;2074435;28;20041;-63
2022/09/14 07:17:09;;;;;;;0.30;0.30;;;;;;;;;;2079556;28;20514;-64
2022/09/14 07:18:31;;;;;;;1.23;0.60;;;;;;;;;;2080109;28;20030;-63
2022/09/14 07:19:50;;;;;;;0.38;0.30;;;;;;;;;;2078659;28;20029;-63
2022/09/14 07:21:11;;;;;;;0.30;0.30;;;;;;;;;;2076287;28;20034;-63
2022/09/14 07:22:33;;;;;;;0.50;0.40;;;;;;;;;;2079704;28;20022;-63
2022/09/14 07:23:52;;;;;;;0.60;0.40;;;;;;;;;;2078977;28;20030;-63
2022/09/14 07:25:11;;;;;;;0.50;0.30;;;;;;;;;;2074896;28;20033;-64
2022/09/14 07:26:32;;;;;;;0.73;0.32;;;;;;;;;;2076094;28;20034;-63
2022/09/14 07:27:51;;;;;;;0.52;0.30;;;;;;;;;;2079903;28;20022;-63
2022/09/14 07:29:12;;;;;;;0.90;0.30;;;;;;;;;;2079261;28;20034;-63
2022/09/14 07:30:36;;;;;;;0.38;0.38;;;;;;;;;;2077697;28;20390;-63
2022/09/14 07:31:55;;;;;;;0.70;0.50;;;;;;;;;;2078876;28;20451;-63
2022/09/14 07:33:14;;;;;;;0.85;0.50;;;;;;;;;;2078395;28;20397;-63
2022/09/14 07:34:33;;;;;;;1.20;0.35;;;;;;;;;;2079944;28;20538;-63
2022/09/14 07:35:52;;;;;;;1.20;0.30;;;;;;;;;;2080232;28;20042;-63
2022/09/14 07:37:11;;;;;;;1.02;0.40;;;;;;;;;;2078113;28;20113;-71
2022/09/14 07:38:30;;;;;;;0.45;0.30;;;;;;;;;;2078476;28;20026;-64
2022/09/14 07:39:49;;;;;;;1.95;0.40;;;;;;;;;;2078952;28;20500;-64
2022/09/14 07:41:08;;;;;;;0.38;0.30;;;;;;;;;;2078418;28;20045;-65
2022/09/14 07:42:27;;;;;;;0.88;0.40;;;;;;;;;;2080044;28;20465;-65
2022/09/14 07:43:49;;;;;;;0.20;0.20;;;;;;;;;;2078256;28;20050;-64
2022/09/14 07:45:09;;;;;;;0.28;0.20;;;;;;;;;;2075464;28;20029;-64
2022/09/14 07:46:28;;;;;;;0.30;0.30;;;;;;;;;;2075830;28;20038;-64
2022/09/14 07:47:47;;;;;;;0.22;0.22;;;;;;;;;;2080678;28;20165;-64
2022/09/14 07:49:07;;;;;;;1.42;0.40;;;;;;;;;;2076635;28;20030;-63
2022/09/14 07:50:25;;;;;;;0.43;0.28;;;;;;;;;;2078114;28;20037;-63
2022/09/14 07:51:44;;;;;;;0.45;0.30;;;;;;;;;;2078225;28;20037;-63
2022/09/14 07:53:03;;;;;;;0.52;0.40;;;;;;;;;;2079214;28;20100;-63
2022/09/14 07:54:22;;;;;;;0.32;0.30;;;;;;;;;;2078514;28;20041;-63
2022/09/14 07:55:41;;;;;;;1.08;0.47;;;;;;;;;;2077223;28;20061;-63
2022/09/14 07:57:00;;;;;;;0.93;0.30;;;;;;;;;;2077365;28;20026;-64
2022/09/14 07:58:19;;;;;;;0.43;0.20;;;;;;;;;;2079489;28;20493;-63
2022/09/14 07:59:39;;;;;;;1.58;0.50;;;;;;;;;;2079329;28;20037;-63
2022/09/14 08:00:58;;;;;;;0.63;0.40;;;;;;;;;;2078302;28;20486;-63
2022/09/14 08:02:18;;;;;;;0.25;0.25;;;;;;;;;;2077160;28;20029;-63
2022/09/14 08:03:42;;;;;;;0.40;0.40;;;;;;;;;;2080087;28;20104;-64
2022/09/14 08:05:01;;;;;;;0.57;0.40;;;;;;;;;;2079224;28;20033;-64